Time;durP1;ratioP1;P1;durP2;ratioP2;P2;SDS_P1;SDS_P2;PMS_P1;PMS_P2;Temp;Humidity;BMP_temperature;BMP_pressure;BME280_temperature;BME280_humidity;BME280_pressure;Samples;Min_cycle;Max_cycle;Signal;HPM_P1;HPM_P2
2023/03/01 00:02:04;;;;;;;1.70;1.60;;;;;;;-5.52;58.17;98244.13;5090652;28;20536;-64
2023/03/01 00:04:30;;;;;;;3.08;1.40;;;;;;;-5.57;57.87;98236.06;5091468;28;20047;-64
2023/03/01 00:06:56;;;;;;;2.83;1.40;;;;;;;-5.56;57.51;98237.66;5091876;28;20059;-65
2023/03/01 00:09:22;;;;;;;4.70;1.63;;;;;;;-5.56;57.64;98235.91;5091284;28;20040;-63
2023/03/01 00:11:48;;;;;;;1.75;1.40;;;;;;;-5.55;57.39;98229.78;5090476;28;20121;-64
2023/03/01 00:14:16;;;;;;;1.45;1.23;;;;;;;-5.54;57.87;98230.56;5091326;28;20044;-63
2023/03/01 00:16:42;;;;;;;3.10;1.83;;;;;;;-5.57;57.08;98233.47;5091543;28;20036;-62
2023/03/01 00:19:14;;;;;;;4.25;1.50;;;;;;;-5.62;57.76;98230.56;5091167;28;20047;-64
2023/03/01 00:21:40;;;;;;;1.58;1.42;;;;;;;-5.59;57.91;98232.81;5091111;28;20044;-63
2023/03/01 00:24:06;;;;;;;3.00;1.38;;;;;;;-5.59;57.57;98230.25;5089860;28;20032;-63
2023/03/01 00:26:32;;;;;;;2.30;1.20;;;;;;;-5.58;57.40;98229.28;5091581;28;20040;-62
2023/03/01 00:28:58;;;;;;;2.55;1.75;;;;;;;-5.59;57.86;98228.50;5091317;28;20599;-64
2023/03/01 00:31:27;;;;;;;4.93;1.85;;;;;;;-5.68;57.99;98232.03;5090459;28;20467;-64
2023/03/01 00:33:56;;;;;;;3.33;1.55;;;;;;;-5.69;57.51;98235.59;5091279;28;20097;-63
2023/03/01 00:36:23;;;;;;;1.98;1.42;;;;;;;-5.70;58.06;98236.56;5090092;28;20042;-64
2023/03/01 00:38:49;;;;;;;4.63;1.63;;;;;;;-5.72;58.26;98225.56;5056328;28;20225;-64
2023/03/01 00:41:16;;;;;;;6.15;1.77;;;;;;;-5.75;57.78;98233.66;5089866;28;20071;-64
2023/03/01 00:43:43;;;;;;;1.35;1.27;;;;;;;-5.76;57.71;98232.84;5091315;28;20051;-64
2023/03/01 00:46:14;;;;;;;5.55;1.85;;;;;;;-5.74;58.10;98223.16;5089996;28;20413;-65
2023/03/01 00:48:39;;;;;;;3.47;1.30;;;;;;;-5.75;57.80;98220.75;5091408;28;20052;-64
2023/03/01 00:51:06;;;;;;;1.50;1.23;;;;;;;-5.75;57.79;98213.81;5090914;28;20125;-64
2023/03/01 00:53:32;;;;;;;2.95;1.27;;;;;;;-5.71;57.86;98222.03;5072930;28;20060;-64
2023/03/01 00:55:58;;;;;;;1.30;1.08;;;;;;;-5.79;57.74;98219.47;5089690;28;20073;-66
2023/03/01 00:58:24;;;;;;;1.70;1.27;;;;;;;-5.81;57.69;98219.63;5089868;28;20085;-63
2023/03/01 01:00:50;;;;;;;2.75;1.15;;;;;;;-5.81;58.01;98217.03;5090929;28;20058;-66
2023/03/01 01:03:15;;;;;;;1.17;1.10;;;;;;;-5.81;58.01;98213.66;5090188;28;20127;-64
2023/03/01 01:05:41;;;;;;;1.50;1.20;;;;;;;-5.86;58.14;98211.53;5076864;28;20470;-65
2023/03/01 01:08:07;;;;;;;2.10;1.42;;;;;;;-5.86;58.27;98213.31;5094275;28;20048;-65
2023/03/01 01:10:35;;;;;;;2.10;1.40;;;;;;;-5.84;58.36;98217.34;5095244;28;20036;-66
2023/03/01 01:13:01;;;;;;;2.67;1.33;;;;;;;-5.85;58.52;98218.34;5095694;28;20137;-63
2023/03/01 01:15:27;;;;;;;1.30;1.20;;;;;;;-5.90;58.22;98218.00;5093851;28;20040;-64
2023/03/01 01:17:53;;;;;;;2.15;1.23;;;;;;;-5.93;57.99;98212.38;5095633;28;20116;-63
2023/03/01 01:20:18;;;;;;;1.45;1.35;;;;;;;-5.89;58.60;98217.03;5093835;28;20132;-65
2023/03/01 01:22:45;;;;;;;2.70;1.20;;;;;;;-5.81;58.30;98231.72;5092570;28;20635;-61
2023/03/01 01:25:11;;;;;;;2.53;1.40;;;;;;;-5.77;58.41;98223.47;5072952;28;20081;-64
2023/03/01 01:27:39;;;;;;;2.45;1.33;;;;;;;-5.82;58.56;98222.38;5087754;28;20032;-64
2023/03/01 01:30:05;;;;;;;1.73;1.20;;;;;;;-5.87;58.65;98216.88;5093594;28;20127;-63
2023/03/01 01:32:31;;;;;;;3.33;1.70;;;;;;;-5.86;59.00;98226.22;5094996;28;20054;-64
2023/03/01 01:34:57;;;;;;;5.80;2.55;;;;;;;-5.85;59.20;98230.41;5093763;28;20048;-62
2023/03/01 01:37:30;;;;;;;6.25;2.90;;;;;;;-5.81;59.08;98229.94;5076782;28;20044;-63
2023/03/01 01:39:59;;;;;;;5.25;2.03;;;;;;;-5.82;59.00;98225.75;5075970;28;20040;-61
2023/03/01 01:42:25;;;;;;;2.80;1.60;;;;;;;-5.83;59.02;98226.69;5093731;28;20051;-62
2023/03/01 01:45:25;;;;;;;1.67;1.45;;;;;;;-5.89;58.95;98222.19;5094510;28;20043;-63
2023/03/01 01:47:52;;;;;;;4.22;1.38;;;;;;;-5.88;59.11;98215.25;5093390;28;20048;-64
2023/03/01 01:50:19;;;;;;;2.83;1.70;;;;;;;-6.00;59.24;98217.38;5093184;28;20047;-64
2023/03/01 01:52:46;;;;;;;2.58;1.25;;;;;;;-5.98;59.68;98218.81;5093286;28;20044;-62
2023/03/01 01:55:21;;;;;;;5.90;2.35;;;;;;;-6.03;59.58;98228.00;5076451;28;20479;-62
2023/03/01 01:57:54;;;;;;;7.53;3.20;;;;;;;-6.08;59.89;98212.22;5060842;28;20051;-63
2023/03/01 02:00:23;;;;;;;5.45;2.97;;;;;;;-6.05;59.86;98227.38;5093104;28;20047;-63
2023/03/01 02:02:56;;;;;;;3.63;2.10;;;;;;;-6.07;60.41;98227.53;5076254;28;20630;-63
2023/03/01 02:05:25;;;;;;;5.13;2.03;;;;;;;-6.17;60.22;98234.63;5067043;28;20102;-64
2023/03/01 02:07:51;;;;;;;2.47;1.88;;;;;;;-6.15;60.26;98231.88;5056168;28;20103;-65
2023/03/01 02:10:21;;;;;;;3.03;1.85;;;;;;;-6.19;60.63;98221.06;5086613;28;20167;-62
2023/03/01 02:12:47;;;;;;;2.05;1.83;;;;;;;-6.17;60.73;98234.63;5094112;28;20044;-64
2023/03/01 02:15:36;;;;;;;4.30;2.10;;;;;;;-6.22;60.75;98242.81;5081759;28;20049;-63
2023/03/01 02:18:04;;;;;;;3.92;1.98;;;;;;;-6.23;60.82;98225.75;5072765;28;20040;-62
2023/03/01 02:20:32;;;;;;;5.53;1.73;;;;;;;-6.22;60.84;98236.88;5071439;28;20127;-64
2023/03/01 02:22:58;;;;;;;2.13;1.30;;;;;;;-6.26;61.12;98231.22;5094274;28;20123;-63
2023/03/01 02:25:58;;;;;;;4.97;1.30;;;;;;;-6.32;60.99;98231.03;5075985;28;20056;-61
2023/03/01 02:28:33;;;;;;;3.13;1.10;;;;;;;-6.28;61.44;98227.19;5023921;28;20091;-63
2023/03/01 02:33:44;;;;;;;2.22;1.40;;;;;;;-6.39;61.43;98236.00;5093772;28;20060;-61
2023/03/01 02:36:16;;;;;;;1.75;1.35;;;;;;;-6.38;61.88;98229.06;5076085;28;20151;-63
2023/03/01 02:38:42;;;;;;;1.50;1.10;;;;;;;-6.39;61.94;98241.16;5058624;28;20048;-65
2023/03/01 02:41:09;;;;;;;2.33;1.50;;;;;;;-6.41;61.66;98228.44;5092545;28;20040;-65
2023/03/01 02:43:35;;;;;;;1.70;1.58;;;;;;;-6.43;61.68;98227.00;5092533;28;20085;-62
2023/03/01 02:46:33;;;;;;;3.22;1.50;;;;;;;-6.44;62.38;98233.94;5058722;28;20391;-63
2023/03/01 02:48:59;;;;;;;1.30;1.20;;;;;;;-6.47;62.17;98233.41;5090842;28;20062;-63
2023/03/01 02:52:03;;;;;;;1.60;1.25;;;;;;;-6.52;61.64;98236.47;5092290;28;20048;-63
2023/03/01 02:54:55;;;;;;;3.03;1.40;;;;;;;-6.54;62.52;98233.22;5091949;28;20046;-61
2023/03/01 02:57:22;;;;;;;1.48;1.02;;;;;;;-6.56;62.17;98235.16;5065637;28;20467;-64
2023/03/01 02:59:49;;;;;;;7.43;1.48;;;;;;;-6.60;63.02;98241.59;5091536;28;20079;-61
2023/03/01 03:02:38;;;;;;;2.65;1.50;;;;;;;-6.61;62.34;98228.88;5073967;28;20044;-60
2023/03/01 03:05:21;;;;;;;6.22;2.00;;;;;;;-6.56;63.07;98237.72;5092859;28;20039;-64
2023/03/01 03:07:50;;;;;;;3.22;1.88;;;;;;;-6.61;62.83;98240.00;5075167;28;20458;-63
2023/03/01 03:10:44;;;;;;;3.55;1.88;;;;;;;-6.71;63.25;98234.13;5091668;28;20085;-64
2023/03/01 03:13:14;;;;;;;4.07;1.90;;;;;;;-6.66;63.20;98240.44;5072093;28;20461;-62
2023/03/01 03:15:43;;;;;;;4.00;1.58;;;;;;;-6.71;63.50;98247.03;5042269;28;20047;-63
2023/03/01 03:18:12;;;;;;;1.80;1.50;;;;;;;-6.70;62.90;98248.66;5074617;28;20044;-64
2023/03/01 03:20:41;;;;;;;4.28;1.40;;;;;;;-6.73;63.73;98249.78;5091535;28;20141;-63
2023/03/01 03:23:08;;;;;;;4.03;1.55;;;;;;;-6.74;63.26;98248.13;5041996;28;20040;-62
2023/03/01 03:25:37;;;;;;;1.80;1.45;;;;;;;-6.76;63.77;98247.50;5091348;28;20083;-62
2023/03/01 03:28:09;;;;;;;3.92;2.00;;;;;;;-6.77;63.91;98243.28;5090113;28;20149;-62
2023/03/01 03:30:39;;;;;;;3.15;1.55;;;;;;;-6.77;63.59;98248.44;5074680;28;20039;-62
2023/03/01 03:33:10;;;;;;;3.05;1.60;;;;;;;-6.83;63.77;98249.06;5041807;28;20127;-61
2023/03/01 03:35:45;;;;;;;3.35;1.67;;;;;;;-6.80;64.32;98253.91;5090196;28;20032;-63
2023/03/01 03:38:15;;;;;;;3.22;1.42;;;;;;;-6.84;64.42;98257.78;5091426;28;20056;-63
2023/03/01 03:40:43;;;;;;;5.57;1.88;;;;;;;-6.81;64.16;98256.66;5092259;28;20550;-63
2023/03/01 03:43:15;;;;;;;5.60;1.77;;;;;;;-6.75;63.72;98254.28;5091422;28;20052;-63
2023/03/01 03:45:41;;;;;;;2.90;2.00;;;;;;;-6.72;63.97;98256.53;5074289;28;20066;-64
2023/03/01 03:48:09;;;;;;;3.70;1.75;;;;;;;-6.70;64.10;98254.63;5092144;28;20534;-63
2023/03/01 03:50:35;;;;;;;6.28;1.73;;;;;;;-6.62;63.64;98253.81;5091956;28;20048;-63
2023/03/01 03:53:02;;;;;;;1.20;1.10;;;;;;;-6.61;63.80;98252.06;5073965;28;20036;-64
2023/03/01 03:55:30;;;;;;;1.38;1.27;;;;;;;-6.63;64.30;98255.59;5090577;28;20082;-64
2023/03/01 03:58:06;;;;;;;1.88;1.45;;;;;;;-6.56;64.39;98266.09;5090997;28;20046;-64
2023/03/01 04:00:37;;;;;;;1.52;1.42;;;;;;;-6.62;64.03;98264.13;5075050;28;20042;-63
2023/03/01 04:03:03;;;;;;;1.42;1.33;;;;;;;-6.63;63.77;98268.50;5092291;28;20043;-64
2023/03/01 04:05:29;;;;;;;3.72;2.13;;;;;;;-6.55;63.79;98264.34;5091528;28;20047;-65
2023/03/01 04:08:01;;;;;;;4.00;1.60;;;;;;;-6.55;64.17;98267.72;5090680;28;20047;-63
2023/03/01 04:10:32;;;;;;;1.92;1.55;;;;;;;-6.57;63.41;98266.25;5091694;28;20047;-65
2023/03/01 04:12:57;;;;;;;5.22;1.83;;;;;;;-6.67;63.63;98258.66;5092266;28;20040;-63
2023/03/01 04:15:25;;;;;;;3.55;1.73;;;;;;;-6.67;64.06;98281.84;5090350;28;20075;-65
2023/03/01 04:17:52;;;;;;;4.65;2.42;;;;;;;-6.63;64.33;98278.78;5090414;28;20459;-65
2023/03/01 04:20:26;;;;;;;3.38;2.25;;;;;;;-6.61;64.59;98267.53;5091540;28;20551;-63
2023/03/01 04:22:57;;;;;;;5.57;2.10;;;;;;;-6.61;64.56;98273.50;5090549;28;20043;-63
2023/03/01 04:25:23;;;;;;;3.70;1.75;;;;;;;-6.61;64.23;98277.84;5090149;28;20032;-63
2023/03/01 04:27:51;;;;;;;6.07;2.45;;;;;;;-6.62;64.71;98277.03;5091746;28;20056;-63
2023/03/01 04:30:17;;;;;;;3.95;2.65;;;;;;;-6.61;64.37;98280.44;5091427;28;20050;-65
2023/03/01 04:32:43;;;;;;;5.20;2.50;;;;;;;-6.56;64.46;98280.75;5090395;28;20078;-65
2023/03/01 04:35:09;;;;;;;5.07;2.15;;;;;;;-6.55;64.14;98282.38;5090842;28;20132;-63
2023/03/01 04:37:35;;;;;;;4.75;1.98;;;;;;;-6.54;63.53;98273.69;5091133;28;20040;-63
2023/03/01 04:40:12;;;;;;;2.85;2.22;;;;;;;-6.54;63.99;98279.63;5090392;28;20046;-63
2023/03/01 04:42:37;;;;;;;4.95;2.90;;;;;;;-6.59;63.74;98283.63;5091512;28;20048;-62
2023/03/01 04:45:12;;;;;;;4.28;1.98;;;;;;;-6.55;63.86;98283.19;5091487;28;20116;-66
2023/03/01 04:47:44;;;;;;;1.35;1.30;;;;;;;-6.54;64.04;98287.38;5091478;28;20040;-63
2023/03/01 04:50:14;;;;;;;5.32;2.13;;;;;;;-6.49;64.16;98292.06;5091061;28;20044;-70
2023/03/01 04:52:39;;;;;;;4.80;2.25;;;;;;;-6.44;64.24;98287.22;5089875;28;20046;-63
2023/03/01 04:55:06;;;;;;;6.20;2.58;;;;;;;-6.35;63.61;98288.91;5090098;28;20731;-64
2023/03/01 04:57:32;;;;;;;4.72;1.92;;;;;;;-6.33;62.90;98286.16;5089419;28;20489;-64
2023/03/01 04:59:58;;;;;;;4.50;2.17;;;;;;;-6.25;63.36;98289.56;5090577;28;20040;-62
2023/03/01 05:02:24;;;;;;;8.57;3.90;;;;;;;-6.22;63.09;98294.41;5090617;28;20040;-63
2023/03/01 05:04:50;;;;;;;7.07;2.83;;;;;;;-6.11;62.87;98298.47;5089372;28;20501;-62
2023/03/01 05:07:19;;;;;;;4.50;2.45;;;;;;;-5.96;62.31;98298.66;5089941;28;20127;-63
2023/03/01 05:09:49;;;;;;;7.43;3.03;;;;;;;-5.82;62.09;98304.97;5090469;28;20425;-62
2023/03/01 05:12:14;;;;;;;;;;;;;;;-5.81;62.15;98304.78;5069689;28;20744;-65
2023/03/01 05:14:41;;;;;;;7.85;3.38;;;;;;;-5.68;61.29;98300.91;5087703;28;19923;-63
2023/03/01 05:17:07;;;;;;;7.20;2.78;;;;;;;-5.53;61.23;98301.88;5087156;28;20097;-62
2023/03/01 05:19:33;;;;;;;12.05;3.83;;;;;;;-5.48;61.30;98305.59;5070888;28;20142;-64
2023/03/01 05:22:01;;;;;;;6.68;2.70;;;;;;;-5.41;60.54;98305.78;5088739;28;20248;-62
2023/03/01 05:24:28;;;;;;;6.22;3.20;;;;;;;-5.50;60.63;98317.88;5088452;28;20039;-64
2023/03/01 05:26:54;;;;;;;11.88;4.57;;;;;;;-5.40;60.43;98315.13;5087760;28;20032;-62
2023/03/01 05:29:24;;;;;;;4.25;2.50;;;;;;;-5.37;60.75;98317.41;5087138;28;20412;-64
2023/03/01 05:31:54;;;;;;;8.85;3.78;;;;;;;-5.20;60.26;98320.78;5088276;28;20040;-63
2023/03/01 05:34:46;;;;;;;7.47;3.45;;;;;;;-5.06;60.17;98320.13;5088998;28;20043;-62
2023/03/01 05:37:13;;;;;;;6.88;3.40;;;;;;;-5.03;59.41;98327.56;5087304;28;20093;-62
2023/03/01 05:39:38;;;;;;;5.72;3.30;;;;;;;-4.93;59.62;98324.78;5088608;28;20044;-63
2023/03/01 05:42:04;;;;;;;7.32;2.92;;;;;;;-4.89;59.04;98326.06;5086319;28;20365;-63
2023/03/01 05:44:30;;;;;;;5.88;2.97;;;;;;;-4.89;58.99;98328.66;5087382;28;20036;-63
2023/03/01 05:46:56;;;;;;;6.78;2.85;;;;;;;-4.86;58.66;98332.69;5088526;28;20055;-63
2023/03/01 05:49:25;;;;;;;5.40;2.78;;;;;;;-4.82;58.73;98329.63;5088176;28;20059;-62
2023/03/01 05:51:52;;;;;;;7.65;3.05;;;;;;;-4.86;59.50;98336.06;5086212;28;20040;-62
2023/03/01 05:54:19;;;;;;;5.63;1.90;;;;;;;-4.97;59.10;98348.53;5088718;28;20036;-64
2023/03/01 05:56:45;;;;;;;3.58;2.00;;;;;;;-5.02;59.43;98349.03;5089574;28;20036;-63
2023/03/01 05:59:11;;;;;;;4.47;2.22;;;;;;;-4.84;59.01;98354.00;5089067;28;20040;-63
2023/03/01 06:01:37;;;;;;;6.07;2.28;;;;;;;-4.80;58.96;98350.91;5089380;28;20552;-63
2023/03/01 06:04:04;;;;;;;2.30;1.70;;;;;;;-4.83;58.49;98345.28;5089106;28;20051;-63
2023/03/01 06:06:33;;;;;;;2.78;2.13;;;;;;;-4.76;58.31;98345.41;5089575;28;20519;-62
2023/03/01 06:08:58;;;;;;;5.55;2.15;;;;;;;-4.62;58.31;98355.09;5090028;28;20098;-64
2023/03/01 06:11:24;;;;;;;4.68;2.05;;;;;;;-4.57;58.37;98345.06;5090835;28;20501;-63
2023/03/01 06:13:50;;;;;;;3.90;2.42;;;;;;;-4.57;57.95;98347.66;5087815;28;20044;-62
2023/03/01 06:16:16;;;;;;;2.00;1.65;;;;;;;-4.57;58.03;98338.09;5091707;28;20048;-63
2023/03/01 06:18:41;;;;;;;2.78;1.75;;;;;;;-4.45;57.56;98354.06;5090509;28;20444;-62
2023/03/01 06:21:08;;;;;;;5.50;1.60;;;;;;;-4.53;57.74;98361.84;5089376;28;20071;-64
2023/03/01 06:23:34;;;;;;;3.95;2.05;;;;;;;-4.61;57.76;98364.47;5089475;28;20104;-63
2023/03/01 06:26:00;;;;;;;2.13;1.77;;;;;;;-4.51;57.90;98357.31;5089504;28;20048;-63
2023/03/01 06:28:26;;;;;;;2.97;2.38;;;;;;;-4.45;58.17;98353.28;5055720;28;20073;-62
2023/03/01 06:30:52;;;;;;;3.33;2.33;;;;;;;-4.51;57.92;98351.34;5092782;28;20048;-62
2023/03/01 06:33:19;;;;;;;4.15;1.98;;;;;;;-4.40;58.06;98356.16;5092838;28;20051;-62
2023/03/01 06:35:48;;;;;;;3.58;1.80;;;;;;;-4.41;57.48;98359.72;5090742;28;20055;-64
2023/03/01 06:38:18;;;;;;;4.18;2.13;;;;;;;-4.25;57.45;98364.03;5089950;28;20440;-64
2023/03/01 06:40:45;;;;;;;5.45;2.13;;;;;;;-4.14;57.07;98363.69;5089623;28;20059;-64
2023/03/01 06:43:10;;;;;;;6.40;2.65;;;;;;;-4.01;57.47;98363.94;5085692;28;20130;-61
2023/03/01 06:45:37;;;;;;;6.00;2.63;;;;;;;-3.98;57.22;98365.38;5089459;28;20112;-62
2023/03/01 06:48:07;;;;;;;7.28;4.78;;;;;;;-3.99;56.93;98379.31;5088480;28;20047;-62
2023/03/01 06:50:34;;;;;;;4.70;2.50;;;;;;;-4.02;57.32;98374.47;5088121;28;20064;-63
2023/03/01 06:53:00;;;;;;;4.68;3.20;;;;;;;-4.18;57.52;98359.78;5089037;28;20051;-64
2023/03/01 06:55:26;;;;;;;5.45;2.70;;;;;;;-4.25;58.02;98369.22;5088143;28;20048;-62
2023/03/01 06:57:59;;;;;;;5.03;2.30;;;;;;;-4.45;58.45;98372.19;5088977;28;20044;-67
2023/03/01 07:00:26;;;;;;;6.75;2.60;;;;;;;-4.55;59.34;98371.56;5087585;28;20394;-64
2023/03/01 07:02:52;;;;;;;4.28;2.70;;;;;;;-4.38;59.37;98374.94;5070003;28;20043;-64
2023/03/01 07:05:18;;;;;;;8.30;3.30;;;;;;;-4.39;59.57;98375.88;5087342;28;20412;-63
2023/03/01 07:07:44;;;;;;;5.65;2.58;;;;;;;-4.23;59.71;98386.19;5090184;28;20044;-64
2023/03/01 07:10:11;;;;;;;6.75;3.15;;;;;;;-4.15;59.86;98388.75;5088535;28;20452;-65
2023/03/01 07:12:38;;;;;;;6.35;2.85;;;;;;;-4.01;59.01;98397.56;5086267;28;20520;-63
2023/03/01 07:15:04;;;;;;;5.65;2.30;;;;;;;-3.93;59.42;98394.97;5090385;28;20044;-65
2023/03/01 07:17:30;;;;;;;7.65;3.53;;;;;;;-3.79;59.32;98400.41;5088722;28;20044;-64
2023/03/01 07:19:57;;;;;;;3.45;2.00;;;;;;;-3.57;58.24;98391.84;5087326;28;20285;-62
2023/03/01 07:22:22;;;;;;;13.45;5.45;;;;;;;-3.36;58.27;98405.97;5088524;28;20036;-63
2023/03/01 07:24:48;;;;;;;3.80;2.10;;;;;;;-3.35;58.57;98413.59;5086495;28;20050;-63
2023/03/01 07:27:14;;;;;;;4.40;2.60;;;;;;;-3.30;58.74;98411.28;5090076;28;20039;-63
2023/03/01 07:29:39;;;;;;;4.35;2.90;;;;;;;-3.24;58.81;98414.97;5090088;28;20050;-63
2023/03/01 07:32:06;;;;;;;8.50;2.13;;;;;;;-3.34;58.28;98420.38;5090983;28;20039;-62
2023/03/01 07:34:31;;;;;;;4.20;2.00;;;;;;;-3.34;58.48;98420.38;5072821;28;20133;-63
2023/03/01 07:36:57;;;;;;;3.25;2.38;;;;;;;-3.45;59.45;98420.75;5090649;28;20116;-63
2023/03/01 07:39:24;;;;;;;5.95;2.67;;;;;;;-3.27;58.81;98421.28;5091484;28;20055;-62
2023/03/01 07:41:50;;;;;;;6.25;2.78;;;;;;;-3.10;58.26;98427.19;5090983;28;20052;-64
2023/03/01 07:44:20;;;;;;;3.88;2.15;;;;;;;-2.82;57.26;98424.88;5088976;28;20390;-63
2023/03/01 07:46:46;;;;;;;7.47;2.63;;;;;;;-2.77;57.28;98434.69;5090266;28;20043;-62
2023/03/01 07:49:11;;;;;;;6.53;3.05;;;;;;;-2.70;56.88;98443.41;5089677;28;20147;-61
2023/03/01 07:51:37;;;;;;;5.15;2.88;;;;;;;-2.72;56.35;98440.16;5088979;28;20122;-62
2023/03/01 07:54:03;;;;;;;5.82;2.70;;;;;;;-2.47;56.35;98434.75;5091419;28;20052;-63
2023/03/01 07:56:28;;;;;;;7.70;2.75;;;;;;;-2.21;56.04;98429.94;5090826;28;20036;-63
2023/03/01 07:58:54;;;;;;;8.88;2.58;;;;;;;-2.17;55.49;98438.19;5089814;28;20075;-65
2023/03/01 08:01:20;;;;;;;3.67;2.42;;;;;;;-2.21;55.64;98418.75;5090434;28;20039;-63
2023/03/01 08:03:47;;;;;;;4.40;2.53;;;;;;;-2.26;55.57;98432.28;5091311;28;20063;-62
2023/03/01 08:06:14;;;;;;;4.45;2.28;;;;;;;-2.41;55.65;98421.91;5088382;28;20031;-64
2023/03/01 08:08:40;;;;;;;8.27;3.40;;;;;;;-2.59;55.88;98421.41;5091303;28;20044;-63
2023/03/01 08:11:07;;;;;;;5.38;2.40;;;;;;;-2.88;56.57;98424.72;5090427;28;20046;-64
2023/03/01 08:13:33;;;;;;;4.25;2.30;;;;;;;-3.12;56.99;98413.56;5071497;28;20524;-62
2023/03/01 08:16:26;;;;;;;12.15;3.97;;;;;;;-3.25;57.38;98423.72;5090386;28;20055;-62
2023/03/01 08:18:51;;;;;;;3.88;2.17;;;;;;;-3.28;57.01;98445.59;5088094;28;20055;-62
2023/03/01 08:21:18;;;;;;;3.97;2.08;;;;;;;-3.20;57.33;98442.97;5089839;28;20044;-66
2023/03/01 08:23:44;;;;;;;3.97;2.17;;;;;;;-3.11;57.05;98451.50;5071361;28;20119;-63
2023/03/01 08:26:15;;;;;;;4.82;2.65;;;;;;;-3.15;56.94;98463.16;5088945;28;20468;-64
2023/03/01 08:28:41;;;;;;;4.95;2.35;;;;;;;-3.22;57.07;98460.47;5089873;28;20040;-62
2023/03/01 08:31:21;;;;;;;2.75;1.88;;;;;;;-3.32;57.53;98459.91;5087160;28;20036;-66
2023/03/01 08:33:51;;;;;;;3.58;2.60;;;;;;;-3.31;58.09;98461.50;5071800;28;20570;-62
2023/03/01 08:36:17;;;;;;;7.88;3.78;;;;;;;-3.24;58.14;98456.44;5055336;28;20043;-64
2023/03/01 08:38:43;;;;;;;6.03;2.55;;;;;;;-3.17;57.29;98452.19;5067961;28;20406;-64
2023/03/01 08:41:09;;;;;;;4.78;2.55;;;;;;;-3.16;57.49;98474.53;5072020;28;20048;-64
2023/03/01 08:43:35;;;;;;;4.95;2.22;;;;;;;-3.05;57.31;98476.72;5071582;28;20051;-64
2023/03/01 08:46:00;;;;;;;6.03;2.42;;;;;;;-3.04;57.45;98477.53;5089556;28;20591;-65
2023/03/01 08:48:28;;;;;;;7.85;2.60;;;;;;;-2.92;57.02;98478.75;5090361;28;20543;-63
2023/03/01 08:50:54;;;;;;;4.53;2.35;;;;;;;-2.90;56.97;98473.41;5088861;28;20136;-62
2023/03/01 08:53:19;;;;;;;5.45;2.13;;;;;;;-2.92;57.06;98470.97;5089299;28;20477;-63
2023/03/01 08:55:45;;;;;;;4.65;2.17;;;;;;;-2.84;56.92;98491.66;5086894;28;20082;-63
2023/03/01 08:58:11;;;;;;;3.95;2.35;;;;;;;-2.80;56.56;98481.72;5086799;28;20536;-62
2023/03/01 09:00:37;;;;;;;3.92;2.15;;;;;;;-2.67;56.72;98474.19;5086187;28;20051;-65
2023/03/01 09:03:02;;;;;;;7.65;2.40;;;;;;;-2.66;56.66;98480.97;5088049;28;20036;-63
2023/03/01 09:05:31;;;;;;;5.03;2.40;;;;;;;-2.68;56.25;98474.34;5090022;28;20059;-63
2023/03/01 09:07:57;;;;;;;4.50;2.08;;;;;;;-2.65;56.49;98468.81;5087532;28;20043;-62
2023/03/01 09:10:23;;;;;;;5.20;2.83;;;;;;;-2.51;56.58;98470.63;5088462;28;20044;-64
2023/03/01 09:12:48;;;;;;;6.53;2.30;;;;;;;-2.34;56.56;98471.28;5089296;28;20456;-62
2023/03/01 09:15:14;;;;;;;2.13;1.60;;;;;;;-2.33;55.08;98485.88;5055262;28;20048;-63
2023/03/01 09:17:40;;;;;;;2.22;1.73;;;;;;;-2.28;55.52;98475.78;5088995;28;20044;-61
2023/03/01 09:20:06;;;;;;;3.30;2.05;;;;;;;-2.26;55.77;98467.78;5087262;28;20527;-65
2023/03/01 09:22:34;;;;;;;7.20;2.35;;;;;;;-2.16;55.48;98473.56;5089535;28;20063;-62
2023/03/01 09:25:00;;;;;;;3.40;2.13;;;;;;;-2.23;55.53;98470.88;5089206;28;20052;-64
2023/03/01 09:27:26;;;;;;;3.22;2.38;;;;;;;-2.39;55.97;98473.59;5091928;28;20036;-63
2023/03/01 09:29:52;;;;;;;3.33;2.38;;;;;;;-2.52;56.12;98469.84;5091746;28;20055;-63
2023/03/01 09:32:17;;;;;;;4.78;2.13;;;;;;;-2.55;56.33;98475.38;5092143;28;20067;-63
2023/03/01 09:35:04;;;;;;;3.15;2.13;;;;;;;-2.15;55.45;98464.78;5092486;28;20068;-63
2023/03/01 09:37:32;;;;;;;3.15;1.52;;;;;;;-1.95;55.24;98465.06;5092457;28;20032;-65
2023/03/01 09:39:57;;;;;;;5.60;2.13;;;;;;;-2.12;54.83;98474.78;5089477;28;20059;-63
2023/03/01 09:42:23;;;;;;;5.88;1.98;;;;;;;-2.25;55.33;98485.00;5093245;28;20040;-63
2023/03/01 09:45:00;;;;;;;2.97;1.70;;;;;;;-2.30;55.41;98473.34;5093634;28;20048;-62
2023/03/01 09:47:29;;;;;;;4.03;2.25;;;;;;;-2.31;55.35;98476.94;5090995;28;20054;-63
2023/03/01 09:49:57;;;;;;;4.18;1.90;;;;;;;-2.24;54.97;98484.81;5091280;28;20063;-66
2023/03/01 09:52:35;;;;;;;5.32;1.60;;;;;;;-1.94;54.70;98479.63;5089565;28;20040;-64
2023/03/01 09:55:01;;;;;;;5.43;2.10;;;;;;;-1.86;53.85;98477.75;5090651;28;20044;-62
2023/03/01 09:57:39;;;;;;;5.43;1.60;;;;;;;-1.84;53.38;98478.41;5091845;28;20044;-63
2023/03/01 10:00:27;;;;;;;1.98;1.65;;;;;;;-1.87;53.32;98478.75;5091716;28;20596;-63
2023/03/01 10:03:03;;;;;;;6.05;2.17;;;;;;;-1.85;53.67;98486.38;5090863;28;20046;-65
2023/03/01 10:05:41;;;;;;;3.28;1.55;;;;;;;-1.65;53.00;98491.81;5092705;28;20043;-63
2023/03/01 10:08:16;;;;;;;5.22;1.70;;;;;;;-1.41;52.78;98491.53;5092511;28;20047;-64
2023/03/01 10:10:44;;;;;;;3.72;1.83;;;;;;;-1.13;52.72;98488.22;5091497;28;20052;-63
2023/03/01 10:13:23;;;;;;;2.83;1.85;;;;;;;-0.98;52.16;98478.56;5092031;28;20044;-63
2023/03/01 10:16:16;;;;;;;2.33;1.77;;;;;;;-0.71;51.82;98499.63;5089898;28;20044;-64
2023/03/01 10:18:44;;;;;;;1.80;1.45;;;;;;;-0.78;50.87;98485.78;5061712;28;20054;-64
2023/03/01 10:21:16;;;;;;;4.75;1.80;;;;;;;-0.73;51.07;98492.03;5089335;28;20417;-62
2023/03/01 10:23:42;;;;;;;2.15;1.67;;;;;;;-0.60;50.48;98495.72;5088725;28;20063;-62
2023/03/01 10:26:37;;;;;;;1.67;1.45;;;;;;;-0.52;50.21;98486.00;5089328;28;20078;-65
2023/03/01 10:29:07;;;;;;;6.45;2.03;;;;;;;-0.54;49.93;98484.56;5071081;28;20066;-62
2023/03/01 10:31:42;;;;;;;3.17;2.03;;;;;;;-0.69;50.18;98485.44;5071974;28;20046;-61
2023/03/01 10:34:17;;;;;;;2.97;1.95;;;;;;;-0.88;49.98;98478.28;5074094;28;20055;-63
2023/03/01 10:36:45;;;;;;;2.83;1.83;;;;;;;-1.21;50.63;98483.94;5090497;28;20318;-66
2023/03/01 10:39:23;;;;;;;2.05;1.30;;;;;;;-1.18;50.72;98477.56;5091364;28;20044;-62
2023/03/01 10:41:55;;;;;;;4.68;1.70;;;;;;;-1.24;51.50;98486.09;5087724;28;20028;-63
2023/03/01 10:44:44;;;;;;;4.45;1.45;;;;;;;-1.26;50.53;98473.28;5088662;28;20089;-61
2023/03/01 10:47:28;;;;;;;7.32;2.78;;;;;;;-1.12;49.82;98478.63;5085922;28;20040;-63
2023/03/01 10:50:00;;;;;;;2.65;1.85;;;;;;;-0.88;49.76;98478.28;5090090;28;20071;-63
2023/03/01 10:52:36;;;;;;;1.60;1.10;;;;;;;-0.93;49.14;98494.44;5089294;28;20044;-62
2023/03/01 10:55:20;;;;;;;4.03;1.52;;;;;;;-0.79;49.59;98478.97;5086188;28;20040;-63
2023/03/01 10:57:46;;;;;;;2.13;1.70;;;;;;;-0.72;48.91;98482.41;5085302;28;20452;-63
2023/03/01 11:00:28;;;;;;;4.00;1.70;;;;;;;-0.74;48.54;98492.19;5087950;28;20132;-63
2023/03/01 11:03:12;;;;;;;5.35;2.05;;;;;;;-0.58;48.92;98470.34;5037608;28;20564;-63
2023/03/01 11:05:53;;;;;;;3.65;1.38;;;;;;;-0.36;49.25;98466.69;5087016;28;20040;-61
2023/03/01 11:08:49;;;;;;;3.78;1.95;;;;;;;-0.18;48.96;98468.00;5087601;28;20089;-62
2023/03/01 11:11:23;;;;;;;4.57;2.15;;;;;;;0.11;48.26;98456.56;5057770;28;20048;-61
2023/03/01 11:14:05;;;;;;;2.75;1.60;;;;;;;0.10;48.57;98471.38;5090846;28;20465;-64
2023/03/01 11:16:34;;;;;;;1.42;1.33;;;;;;;0.06;48.35;98478.00;5055219;28;20048;-60
2023/03/01 11:19:09;;;;;;;10.38;4.38;;;;;;;-0.09;49.22;98470.28;5090993;28;20131;-63
2023/03/01 11:21:38;;;;;;;9.57;3.70;;;;;;;-0.04;48.53;98480.91;5087835;28;20040;-62
2023/03/01 11:24:06;;;;;;;3.08;2.03;;;;;;;0.08;48.59;98480.38;5069881;28;20848;-62
2023/03/01 11:26:34;;;;;;;4.25;1.77;;;;;;;0.18;48.34;98478.25;5086353;28;20043;-63
2023/03/01 11:29:04;;;;;;;8.57;3.80;;;;;;;0.16;47.67;98488.84;5088519;28;20093;-63
2023/03/01 11:31:30;;;;;;;4.38;3.08;;;;;;;0.03;48.58;98480.97;5085153;28;20425;-63
2023/03/01 11:34:14;;;;;;;5.18;3.33;;;;;;;-0.03;48.50;98484.31;5089193;28;20055;-65
2023/03/01 11:36:42;;;;;;;5.05;2.03;;;;;;;-0.11;48.50;98487.91;5090232;28;20123;-68
2023/03/01 11:39:17;;;;;;;2.15;1.38;;;;;;;-0.19;48.33;98484.63;5088337;28;20130;-63
2023/03/01 11:41:43;;;;;;;2.83;1.67;;;;;;;-0.02;47.59;98478.94;5089359;28;20039;-61
2023/03/01 11:44:18;;;;;;;3.15;1.60;;;;;;;0.04;47.53;98479.19;5089785;28;20044;-62
2023/03/01 11:47:14;;;;;;;3.85;1.40;;;;;;;0.14;46.86;98482.22;5086229;28;20466;-66
2023/03/01 11:49:55;;;;;;;2.00;1.40;;;;;;;-0.04;47.18;98491.34;5087890;28;20063;-64